Time;durP1;ratioP1;P1;durP2;ratioP2;P2;SDS_P1;SDS_P2;PMS_P1;PMS_P2;Temp;Humidity;BMP_temperature;BMP_pressure;BME280_temperature;BME280_humidity;BME280_pressure;Samples;Min_cycle;Max_cycle;Signal;HPM_P1;HPM_P2
2023/08/08 00:04:49;;;;;;;40.40;6.47;;;;;;;26.71;77.69;99560.78;10338103;28;20030;-67
2023/08/08 00:09:50;;;;;;;20.50;4.90;;;;;;;26.54;77.62;99549.59;10338191;28;20585;-68
2023/08/08 00:14:51;;;;;;;21.00;5.03;;;;;;;26.48;78.16;99553.47;10337580;28;20134;-68
2023/08/08 00:19:51;;;;;;;28.02;6.70;;;;;;;26.57;78.21;99568.06;10338098;28;20061;-67
2023/08/08 00:24:52;;;;;;;27.27;5.65;;;;;;;26.49;79.12;99564.06;10337766;28;20048;-68
2023/08/08 00:29:54;;;;;;;27.42;6.10;;;;;;;25.89;79.44;99484.78;10336808;28;20053;-68
2023/08/08 00:34:55;;;;;;;22.98;5.45;;;;;;;26.34;79.93;99566.97;10336761;28;20054;-67
2023/08/08 00:39:56;;;;;;;200.15;13.52;;;;;;;25.88;79.88;99513.91;10336551;28;20060;-68
2023/08/08 00:45:03;;;;;;;33.30;6.20;;;;;;;26.09;80.77;99570.81;10336273;28;20042;-68
2023/08/08 00:50:05;;;;;;;29.42;5.90;;;;;;;26.09;80.49;99576.25;10337102;28;20046;-67
2023/08/08 00:55:06;;;;;;;23.95;5.90;;;;;;;26.11;80.62;99572.13;10335969;28;20076;-67
2023/08/08 01:00:09;;;;;;;18.52;6.10;;;;;;;26.10;80.34;99561.53;10336281;28;20495;-67
2023/08/08 01:05:10;;;;;;;;;;;;;;;26.46;79.47;99582.88;10335953;28;20043;-68
2023/08/08 01:10:20;;;;;;;16.92;5.55;;;;;;;26.30;78.43;99588.53;10335568;28;20305;-68
2023/08/08 01:15:22;;;;;;;25.58;7.65;;;;;;;25.88;78.64;99522.06;10336573;28;20047;-67
2023/08/08 01:20:23;;;;;;;32.90;6.95;;;;;;;26.32;78.07;99586.31;10335472;28;20104;-67
2023/08/08 01:25:24;;;;;;;32.10;7.13;;;;;;;26.35;77.62;99588.44;10334750;28;20038;-67
2023/08/08 01:30:25;;;;;;;23.02;7.03;;;;;;;26.33;77.31;99592.59;10333274;28;20050;-67
2023/08/08 01:35:31;;;;;;;17.70;6.85;;;;;;;26.38;77.39;99606.94;10335225;28;20132;-68
2023/08/08 01:40:33;;;;;;;23.98;7.05;;;;;;;26.39;76.15;99616.72;10310232;28;20097;-68
2023/08/08 01:45:33;;;;;;;47.88;8.35;;;;;;;26.24;76.67;99589.69;10316263;28;20046;-67
2023/08/08 01:50:35;;;;;;;52.30;8.75;;;;;;;26.44;76.47;99621.28;10332539;28;20041;-68
2023/08/08 01:55:35;;;;;;;17.20;6.25;;;;;;;25.95;75.78;99543.47;10333727;28;20101;-67
2023/08/08 02:00:36;;;;;;;17.38;6.28;;;;;;;26.38;75.45;99623.28;10320809;28;20093;-67
2023/08/08 02:05:37;;;;;;;18.15;6.75;;;;;;;26.28;75.84;99620.66;10333549;28;20478;-67
2023/08/08 02:10:38;;;;;;;16.27;6.18;;;;;;;26.44;75.89;99634.91;10334143;28;20550;-67
2023/08/08 02:15:39;;;;;;;12.60;6.03;;;;;;;26.41;75.54;99632.78;10333518;28;20046;-67
2023/08/08 02:20:39;;;;;;;11.98;5.82;;;;;;;26.48;75.07;99640.63;10333460;28;20486;-68
2023/08/08 02:25:40;;;;;;;9.63;5.75;;;;;;;25.69;75.20;99499.38;10333137;28;20411;-67
2023/08/08 02:30:41;;;;;;;22.38;6.78;;;;;;;26.69;74.93;99633.03;10332340;28;20042;-67
2023/08/08 02:35:41;;;;;;;10.15;5.63;;;;;;;26.79;74.50;99632.88;10331002;28;20046;-67
2023/08/08 02:40:42;;;;;;;15.48;5.80;;;;;;;26.72;73.78;99606.00;10331951;28;20411;-68
2023/08/08 02:45:43;;;;;;;14.38;5.70;;;;;;;26.93;73.84;99616.63;10332360;28;20046;-67
2023/08/08 02:50:44;;;;;;;14.63;5.80;;;;;;;26.38;73.48;99503.47;10331435;28;20045;-67
2023/08/08 02:55:44;;;;;;;41.25;8.45;;;;;;;27.38;73.70;99627.97;10332290;28;20066;-67
2023/08/08 03:00:45;;;;;;;18.52;6.70;;;;;;;27.14;72.91;99532.63;10331504;28;20050;-69
2023/08/08 03:05:46;;;;;;;9.85;6.13;;;;;;;28.19;71.57;99626.56;10332008;28;20046;-69
2023/08/08 03:10:47;;;;;;;20.20;6.32;;;;;;;28.35;69.81;99558.00;10331175;28;20093;-69
2023/08/08 03:15:48;;;;;;;15.30;6.28;;;;;;;29.47;68.23;99637.53;10331095;28;20076;-69
2023/08/08 03:20:49;;;;;;;15.00;6.25;;;;;;;29.96;66.78;99615.78;10331262;28;20411;-69
2023/08/08 03:25:50;;;;;;;10.93;6.50;;;;;;;30.36;65.16;99619.34;10331669;28;20038;-69
2023/08/08 03:30:50;;;;;;;17.90;6.63;;;;;;;31.18;63.17;99632.59;10331354;28;20092;-69
2023/08/08 03:35:51;;;;;;;18.13;7.00;;;;;;;31.80;61.84;99635.78;10330640;28;20042;-69
2023/08/08 03:40:52;;;;;;;15.52;7.00;;;;;;;32.15;59.91;99627.44;10331411;28;20053;-69
2023/08/08 03:45:52;;;;;;;30.83;6.93;;;;;;;32.38;58.74;99630.72;10331882;28;20050;-70
2023/08/08 03:50:53;;;;;;;38.72;8.57;;;;;;;32.44;58.10;99574.44;10309875;28;20053;-69
2023/08/08 03:55:54;;;;;;;16.58;7.25;;;;;;;32.69;56.67;99596.59;10306794;28;20062;-71
2023/08/08 04:00:55;;;;;;;34.08;8.65;;;;;;;33.40;55.13;99642.53;10312870;28;20042;-70
2023/08/08 04:05:57;;;;;;;16.58;7.95;;;;;;;32.97;55.17;99580.38;10308847;28;20470;-70
2023/08/08 04:10:58;;;;;;;61.42;9.23;;;;;;;33.65;55.06;99632.41;10308513;28;20074;-70
2023/08/08 04:15:58;;;;;;;14.30;7.88;;;;;;;33.97;53.34;99643.75;10299131;28;20053;-69
2023/08/08 04:20:59;;;;;;;13.10;7.53;;;;;;;33.75;52.20;99581.63;10317644;28;20410;-71
2023/08/08 04:26:00;;;;;;;12.98;7.60;;;;;;;34.31;51.76;99648.03;10314750;28;20088;-69
2023/08/08 04:31:01;;;;;;;15.57;7.20;;;;;;;34.07;51.16;99568.91;10321578;28;20048;-71
2023/08/08 04:36:02;;;;;;;11.82;7.10;;;;;;;34.67;50.98;99641.78;10336410;28;20065;-70
2023/08/08 04:41:03;;;;;;;17.48;7.10;;;;;;;34.49;50.40;99594.31;10337174;28;20521;-70
2023/08/08 04:46:03;;;;;;;13.57;6.53;;;;;;;34.60;50.35;99633.25;10322917;28;20402;-71
2023/08/08 04:51:08;;;;;;;28.63;7.68;;;;;;;34.72;50.72;99651.75;10296811;28;20042;-70
2023/08/08 04:56:09;;;;;;;16.38;7.20;;;;;;;34.13;49.83;99539.16;10294682;28;20058;-70
2023/08/08 05:01:14;;;;;;;23.17;7.60;;;;;;;34.39;49.98;99583.72;10296770;28;20455;-70
2023/08/08 05:06:14;;;;;;;18.85;6.78;;;;;;;34.30;49.59;99602.34;10295305;28;20050;-70
2023/08/08 05:11:15;;;;;;;13.13;6.60;;;;;;;34.16;50.09;99621.16;10295528;28;20046;-70
2023/08/08 05:16:17;;;;;;;15.75;7.15;;;;;;;34.22;50.98;99636.34;10295759;28;20042;-70
2023/08/08 05:21:21;;;;;;;16.38;6.88;;;;;;;34.14;50.63;99632.56;10295430;28;20043;-70
2023/08/08 05:26:22;;;;;;;20.17;7.10;;;;;;;33.86;50.87;99629.59;10295477;28;20042;-70
2023/08/08 05:31:23;;;;;;;12.75;7.03;;;;;;;33.80;51.89;99633.72;10294942;28;20133;-70
2023/08/08 05:36:23;;;;;;;12.20;7.13;;;;;;;33.52;50.46;99572.97;10295666;28;20121;-70
2023/08/08 05:41:24;;;;;;;12.88;7.32;;;;;;;33.98;50.28;99637.88;10294562;28;20158;-70
2023/08/08 05:46:25;;;;;;;12.63;7.13;;;;;;;33.96;49.13;99631.94;10294440;28;20042;-69
2023/08/08 05:51:26;;;;;;;14.18;6.75;;;;;;;33.98;49.58;99624.09;10294211;28;20043;-70
2023/08/08 05:56:35;;;;;;;14.73;7.45;;;;;;;34.30;48.61;99638.19;10294452;28;20063;-70
2023/08/08 06:01:37;;;;;;;17.45;7.00;;;;;;;34.43;47.70;99631.53;10294076;28;20049;-69
2023/08/08 06:06:38;;;;;;;18.57;7.87;;;;;;;34.32;47.56;99602.81;10293584;28;20049;-70
2023/08/08 06:11:38;;;;;;;12.50;7.57;;;;;;;34.59;47.12;99631.66;10294052;28;20376;-70
2023/08/08 06:16:39;;;;;;;16.65;7.78;;;;;;;34.78;46.89;99619.22;10293325;28;20045;-71
2023/08/08 06:21:40;;;;;;;12.68;7.60;;;;;;;35.03;46.59;99625.47;10293283;28;20050;-70
2023/08/08 06:26:41;;;;;;;12.57;7.57;;;;;;;34.64;46.60;99568.00;10292289;28;20124;-70
2023/08/08 06:31:42;;;;;;;13.05;7.65;;;;;;;34.78;46.32;99564.81;10292744;28;20069;-70
2023/08/08 06:36:43;;;;;;;16.52;8.68;;;;;;;34.92;45.66;99558.94;10292546;28;20042;-70
2023/08/08 06:41:43;;;;;;;15.18;8.32;;;;;;;35.18;46.04;99580.56;10292410;28;20035;-71
2023/08/08 06:46:44;;;;;;;31.90;9.18;;;;;;;35.37;46.10;99613.06;10292724;28;20495;-71
2023/08/08 06:51:45;;;;;;;16.73;8.70;;;;;;;35.42;46.15;99587.94;10292182;28;20396;-70
2023/08/08 06:56:45;;;;;;;25.38;10.23;;;;;;;35.71;46.13;99625.44;10292337;28;20531;-70
2023/08/08 07:01:47;;;;;;;15.13;9.63;;;;;;;35.90;46.56;99608.19;10292392;28;20034;-70
2023/08/08 07:06:47;;;;;;;19.92;12.00;;;;;;;35.94;46.21;99597.22;10292016;28;20041;-70
2023/08/08 07:11:48;;;;;;;19.23;11.70;;;;;;;36.08;46.03;99600.38;10291715;28;20069;-70
2023/08/08 07:16:49;;;;;;;21.08;12.23;;;;;;;36.19;45.12;99595.09;10290988;28;20045;-70
2023/08/08 07:21:50;;;;;;;25.00;11.98;;;;;;;36.22;45.20;99597.13;10291477;28;20062;-70
2023/08/08 07:26:50;;;;;;;26.67;11.50;;;;;;;36.54;44.87;99604.25;10290630;28;20097;-70
2023/08/08 07:31:54;;;;;;;18.43;10.60;;;;;;;36.27;44.67;99545.13;10290700;28;20081;-70
2023/08/08 07:36:55;;;;;;;14.65;9.32;;;;;;;36.54;44.19;99571.03;10293404;28;20050;-70
2023/08/08 07:41:57;;;;;;;17.45;9.40;;;;;;;36.85;44.65;99590.66;10298647;28;20474;-70
2023/08/08 07:46:58;;;;;;;27.08;9.95;;;;;;;36.64;43.24;99543.97;10298985;28;20047;-70
2023/08/08 07:51:58;;;;;;;17.00;9.80;;;;;;;36.87;42.67;99591.13;10298601;28;20039;-71
2023/08/08 07:56:59;;;;;;;18.53;8.10;;;;;;;36.38;42.46;99511.38;10297850;28;20515;-70
2023/08/08 08:02:00;;;;;;;17.23;8.40;;;;;;;36.95;42.23;99579.03;10298932;28;20104;-70
2023/08/08 08:07:01;;;;;;;19.90;8.63;;;;;;;36.66;41.74;99505.69;10298289;28;20070;-71
2023/08/08 08:12:02;;;;;;;17.80;8.93;;;;;;;37.18;42.02;99568.03;10298243;28;20031;-70
2023/08/08 08:17:03;;;;;;;21.63;8.17;;;;;;;37.23;41.31;99565.78;10296734;28;20125;-70
2023/08/08 08:22:04;;;;;;;41.42;9.05;;;;;;;37.55;40.56;99562.84;10297199;28;20041;-70
2023/08/08 08:27:05;;;;;;;15.53;8.73;;;;;;;37.67;40.49;99545.22;10297540;28;20050;-70
2023/08/08 08:32:06;;;;;;;15.33;8.03;;;;;;;37.49;40.31;99500.59;10298114;28;20558;-70
2023/08/08 08:37:07;;;;;;;14.87;6.77;;;;;;;37.71;39.89;99545.28;10296616;28;20517;-72
2023/08/08 08:42:13;;;;;;;24.13;7.77;;;;;;;37.46;39.62;99515.97;10296380;28;20051;-70
2023/08/08 08:47:15;;;;;;;14.65;6.80;;;;;;;37.63;39.27;99536.03;10294888;28;20077;-70
2023/08/08 08:52:15;;;;;;;;;;;;;;;38.11;38.97;99550.28;10297567;28;20043;-71
2023/08/08 08:57:16;;;;;;;14.80;6.63;;;;;;;37.31;38.83;99486.41;10297275;28;19922;-72
2023/08/08 09:02:18;;;;;;;15.87;6.37;;;;;;;37.79;38.64;99538.69;10296160;28;20051;-70
2023/08/08 09:07:22;;;;;;;13.38;6.15;;;;;;;37.67;38.34;99487.81;10295966;28;20051;-70
2023/08/08 09:12:24;;;;;;;15.18;6.15;;;;;;;38.14;38.11;99544.81;10295264;28;20038;-70
2023/08/08 09:17:25;;;;;;;;;;;;;;;38.51;38.57;99537.84;10295853;28;20439;-71
2023/08/08 09:22:27;;;;;;;;;;;;;;;38.54;38.11;99532.31;10294714;28;19966;-70
2023/08/08 09:27:29;;;;;;;11.98;5.63;;;;;;;38.35;37.60;99530.47;10295282;28;20025;-70
2023/08/08 09:32:31;;;;;;;13.35;5.72;;;;;;;38.32;37.62;99528.44;10318413;28;20576;-70
2023/08/08 09:37:32;;;;;;;13.60;5.97;;;;;;;38.24;37.22;99489.88;10334500;28;20089;-71
2023/08/08 09:42:33;;;;;;;13.17;5.50;;;;;;;38.53;36.59;99489.13;10317021;28;20078;-70
2023/08/08 09:47:33;;;;;;;17.85;5.25;;;;;;;38.75;36.44;99511.56;10292739;28;20396;-70
2023/08/08 09:52:35;;;;;;;11.30;5.07;;;;;;;38.77;36.17;99500.88;10291593;28;20110;-71
2023/08/08 09:57:39;;;;;;;11.82;5.57;;;;;;;38.72;37.14;99512.31;10292066;28;20499;-71
2023/08/08 10:02:41;;;;;;;12.07;5.40;;;;;;;38.61;36.78;99500.28;10290555;28;20050;-70
2023/08/08 10:07:42;;;;;;;22.02;5.32;;;;;;;38.89;36.78;99489.56;10291737;28;20042;-71
2023/08/08 10:12:43;;;;;;;18.77;5.47;;;;;;;38.95;36.10;99484.44;10293961;28;20051;-71
2023/08/08 10:17:44;;;;;;;15.73;5.47;;;;;;;39.01;35.87;99488.47;10291482;28;20057;-70
2023/08/08 10:22:46;;;;;;;25.77;5.37;;;;;;;39.17;36.02;99491.03;10293239;28;20130;-70
2023/08/08 10:27:47;;;;;;;17.30;5.53;;;;;;;39.13;35.39;99462.41;10292634;28;20389;-70
2023/08/08 10:32:50;;;;;;;20.17;5.40;;;;;;;39.30;34.94;99477.69;10292772;28;20582;-70
2023/08/08 10:37:54;;;;;;;27.17;6.00;;;;;;;39.33;34.96;99463.81;10293159;28;20813;-71
2023/08/08 10:42:55;;;;;;;19.65;5.43;;;;;;;38.96;35.61;99409.09;10298439;28;20537;-69
2023/08/08 10:47:56;;;;;;;20.02;5.78;;;;;;;39.51;35.23;99471.50;10296735;28;20062;-71
2023/08/08 10:52:57;;;;;;;19.47;4.80;;;;;;;39.30;35.54;99445.13;10292083;28;20376;-70
2023/08/08 10:58:08;;;;;;;20.10;6.10;;;;;;;39.11;34.34;99412.00;10291273;28;20101;-70
2023/08/08 11:03:10;;;;;;;22.77;5.43;;;;;;;39.17;34.65;99404.94;10290201;28;20046;-70
2023/08/08 11:08:10;;;;;;;21.25;5.80;;;;;;;39.32;34.19;99401.09;10291236;28;20059;-70
2023/08/08 11:13:11;;;;;;;18.50;5.63;;;;;;;39.52;33.95;99446.13;10290816;28;20042;-70
2023/08/08 11:18:13;;;;;;;21.25;5.32;;;;;;;39.22;35.25;99410.09;10292076;28;20053;-70
2023/08/08 11:23:14;;;;;;;14.30;4.85;;;;;;;39.58;34.39;99444.59;10291364;28;20043;-70
2023/08/08 11:28:15;;;;;;;13.93;4.70;;;;;;;39.71;34.63;99442.28;10291302;28;20143;-70
2023/08/08 11:33:17;;;;;;;23.00;6.07;;;;;;;39.63;34.14;99427.53;10300043;28;20137;-71
2023/08/08 11:38:18;;;;;;;19.75;5.75;;;;;;;39.74;34.49;99435.97;10292920;28;20290;-70
2023/08/08 11:43:20;;;;;;;22.15;5.10;;;;;;;39.89;34.44;99443.22;10290604;28;20510;-70
2023/08/08 11:48:21;;;;;;;17.95;5.60;;;;;;;39.66;34.22;99421.19;10294750;28;20043;-70
2023/08/08 11:53:23;;;;;;;;;;;;;;;40.02;34.41;99424.22;10330227;28;20058;-70
2023/08/08 11:58:25;;;;;;;17.00;5.28;;;;;;;39.65;34.10;99396.56;10330882;28;20313;-70
2023/08/08 12:03:26;;;;;;;12.63;4.65;;;;;;;39.42;34.41;99375.38;10329784;28;20418;-74
2023/08/08 12:08:30;;;;;;;;;;;;;;;40.07;34.72;99417.50;10302623;28;20053;-71
2023/08/08 12:13:31;;;;;;;18.65;4.63;;;;;;;39.90;34.22;99411.44;10299896;28;19929;-71
2023/08/08 12:18:32;;;;;;;16.27;4.78;;;;;;;39.98;33.63;99390.03;10307612;28;20054;-72
2023/08/08 12:23:34;;;;;;;37.58;5.93;;;;;;;39.68;35.30;99348.53;10310255;28;20503;-70
2023/08/08 12:28:35;;;;;;;20.77;5.80;;;;;;;39.73;34.25;99339.84;10309047;28;20507;-71
2023/08/08 12:33:36;;;;;;;15.13;4.78;;;;;;;39.55;33.71;99344.47;10337012;28;20053;-70
2023/08/08 12:38:37;;;;;;;18.37;5.70;;;;;;;39.80;33.38;99378.81;10307945;28;20066;-72
2023/08/08 12:43:37;;;;;;;27.43;6.33;;;;;;;39.91;34.34;99387.22;10309948;28;20278;-71
2023/08/08 12:48:38;;;;;;;19.95;6.00;;;;;;;39.96;34.51;99381.28;10300965;28;20065;-71
2023/08/08 12:53:39;;;;;;;22.10;5.50;;;;;;;40.10;33.64;99388.91;10306180;28;20054;-72
2023/08/08 12:58:40;;;;;;;18.88;5.63;;;;;;;39.89;33.81;99365.38;10321228;28;20380;-72
2023/08/08 13:03:41;;;;;;;22.42;5.65;;;;;;;39.89;33.72;99378.47;10317684;28;20046;-71
2023/08/08 13:08:42;;;;;;;11.77;5.03;;;;;;;39.85;33.86;99372.91;10319761;28;20065;-71
2023/08/08 13:13:42;;;;;;;35.47;6.10;;;;;;;39.90;33.82;99382.84;10321901;28;20042;-72
2023/08/08 13:18:43;;;;;;;24.90;5.80;;;;;;;39.90;33.61;99386.41;10295630;28;20046;-71
2023/08/08 13:23:44;;;;;;;22.70;5.60;;;;;;;39.56;32.85;99329.41;10310054;28;20487;-72
2023/08/08 13:28:45;;;;;;;16.83;4.83;;;;;;;39.75;33.25;99354.16;10305076;28;20053;-72
2023/08/08 13:33:45;;;;;;;16.27;5.37;;;;;;;39.79;33.96;99346.66;10304172;28;20121;-72
2023/08/08 13:38:46;;;;;;;17.53;4.93;;;;;;;39.86;33.94;99374.47;10300911;28;20420;-72
2023/08/08 13:43:47;;;;;;;17.63;5.00;;;;;;;39.32;34.19;99294.75;10312418;28;20096;-73
2023/08/08 13:48:48;;;;;;;17.77;5.10;;;;;;;39.72;34.28;99372.38;10296392;28;20054;-72
2023/08/08 13:53:49;;;;;;;17.53;5.80;;;;;;;39.18;34.08;99295.41;10309661;28;20069;-72
2023/08/08 13:58:50;;;;;;;17.40;4.55;;;;;;;39.20;34.19;99304.16;10307466;28;20061;-72
2023/08/08 14:03:50;;;;;;;22.10;5.40;;;;;;;39.59;34.52;99367.56;10294069;28;20047;-72
2023/08/08 14:08:52;;;;;;;22.00;5.67;;;;;;;39.54;34.04;99370.69;10299591;28;20415;-72
2023/08/08 14:13:52;;;;;;;17.85;4.72;;;;;;;39.53;34.28;99363.53;10291960;28;20133;-72
2023/08/08 14:18:53;;;;;;;13.57;4.20;;;;;;;39.34;33.74;99357.06;10293242;28;20503;-72
2023/08/08 14:23:54;;;;;;;31.53;6.10;;;;;;;39.18;34.90;99345.41;10321724;28;20502;-72
2023/08/08 14:28:55;;;;;;;18.93;6.90;;;;;;;39.18;34.31;99354.53;10310325;28;20057;-71
2023/08/08 14:33:55;;;;;;;18.23;8.50;;;;;;;39.10;34.23;99357.63;10310463;28;20077;-71
2023/08/08 14:38:56;;;;;;;19.33;6.20;;;;;;;38.24;33.61;99226.41;10291525;28;20066;-73
2023/08/08 14:43:57;;;;;;;57.30;9.00;;;;;;;38.81;34.97;99327.63;10303006;28;20526;-73
2023/08/08 14:48:58;;;;;;;48.83;9.40;;;;;;;38.69;34.38;99329.91;10315336;28;20088;-72
2023/08/08 14:53:59;;;;;;;16.70;5.40;;;;;;;38.64;34.79;99349.66;10331116;28;20153;-72
2023/08/08 14:58:59;;;;;;;32.28;9.32;;;;;;;38.06;35.23;99279.69;10319560;28;20049;-72
2023/08/08 15:04:00;;;;;;;36.67;11.70;;;;;;;37.91;35.18;99277.91;10292013;28;20471;-72
2023/08/08 15:09:02;;;;;;;28.27;8.00;;;;;;;37.82;35.79;99280.16;10294000;28;20049;-72
2023/08/08 15:14:03;;;;;;;28.08;7.32;;;;;;;37.94;37.48;99349.25;10326395;28;20042;-72
2023/08/08 15:19:04;;;;;;;40.87;10.70;;;;;;;37.79;38.56;99367.63;10331725;28;20045;-72
2023/08/08 15:24:05;;;;;;;28.27;8.53;;;;;;;37.50;38.73;99369.19;10331699;28;20039;-72
2023/08/08 15:29:06;;;;;;;32.70;6.70;;;;;;;37.07;39.99;99337.25;10330538;28;20042;-72
2023/08/08 15:34:07;;;;;;;28.07;8.07;;;;;;;36.89;40.55;99356.28;10294041;28;20042;-72
2023/08/08 15:39:08;;;;;;;23.07;7.37;;;;;;;36.62;41.72;99355.38;10290703;28;20082;-72
2023/08/08 15:44:08;;;;;;;68.53;10.10;;;;;;;36.28;42.67;99339.31;10291699;28;20082;-72
2023/08/08 15:49:12;;;;;;;37.13;6.33;;;;;;;36.02;43.29;99358.50;10290327;28;20132;-72
2023/08/08 15:54:13;;;;;;;42.55;6.93;;;;;;;35.21;44.55;99288.06;10290607;28;20501;-73
2023/08/08 15:59:13;;;;;;;31.55;6.25;;;;;;;35.38;45.67;99357.84;10293979;28;20043;-72
2023/08/08 16:04:14;;;;;;;39.70;8.40;;;;;;;35.01;46.81;99358.13;10298347;28;20042;-70
2023/08/08 16:09:15;;;;;;;37.95;12.40;;;;;;;34.36;48.78;99302.41;10297617;28;20050;-69
2023/08/08 16:14:16;;;;;;;44.75;12.13;;;;;;;34.66;46.37;99369.03;10296253;28;20054;-71
2023/08/08 16:19:17;;;;;;;71.40;13.45;;;;;;;34.43;47.86;99366.81;10297656;28;20046;-70
2023/08/08 16:24:18;;;;;;;39.90;10.23;;;;;;;33.59;48.92;99287.59;10297596;28;20047;-70
2023/08/08 16:29:18;;;;;;;43.42;10.23;;;;;;;33.84;51.61;99386.72;10296709;28;20046;-69
2023/08/08 16:34:19;;;;;;;36.20;9.25;;;;;;;33.23;52.53;99334.41;10297824;28;20105;-70
2023/08/08 16:39:20;;;;;;;41.15;12.10;;;;;;;33.23;53.38;99376.50;10297388;28;20035;-69
2023/08/08 16:44:20;;;;;;;68.45;13.98;;;;;;;32.71;54.66;99339.38;10295792;28;20051;-69
2023/08/08 16:49:22;;;;;;;88.43;23.17;;;;;;;32.76;55.26;99370.53;10296181;28;20129;-70
2023/08/08 16:54:22;;;;;;;72.55;23.92;;;;;;;32.78;55.67;99404.81;10296117;28;20054;-70
2023/08/08 16:59:24;;;;;;;85.47;25.48;;;;;;;32.58;55.42;99392.75;10296476;28;20053;-70
2023/08/08 17:04:25;;;;;;;59.97;21.80;;;;;;;32.55;56.01;99406.34;10295606;28;20458;-70
2023/08/08 17:09:25;;;;;;;61.10;19.65;;;;;;;32.24;57.91;99402.84;10294946;28;20047;-70
2023/08/08 17:14:26;;;;;;;63.25;20.23;;;;;;;31.66;58.14;99341.38;10296296;28;20049;-69
2023/08/08 17:19:27;;;;;;;50.95;17.55;;;;;;;31.47;58.59;99358.28;10307259;28;20070;-70
2023/08/08 17:24:28;;;;;;;46.25;16.15;;;;;;;31.71;59.46;99444.69;10294834;28;20045;-71
2023/08/08 17:29:28;;;;;;;52.40;14.65;;;;;;;31.51;60.95;99441.56;10303916;28;20058;-70
2023/08/08 17:34:29;;;;;;;33.92;14.48;;;;;;;30.91;62.08;99355.59;10293132;28;20042;-71
2023/08/08 17:39:30;;;;;;;46.47;13.88;;;;;;;30.94;63.03;99381.56;10294964;28;20108;-70
2023/08/08 17:44:31;;;;;;;42.25;15.18;;;;;;;30.71;63.81;99362.53;10301198;28;20388;-71
2023/08/08 17:49:32;;;;;;;48.80;18.73;;;;;;;31.14;65.27;99437.63;10298485;28;20050;-70
2023/08/08 17:54:32;;;;;;;59.72;20.23;;;;;;;30.51;65.26;99343.25;10292767;28;20474;-70
2023/08/08 17:59:33;;;;;;;51.25;17.17;;;;;;;30.78;65.89;99410.59;10291846;28;20035;-70
2023/08/08 18:04:34;;;;;;;40.35;15.90;;;;;;;30.89;66.37;99458.50;10298457;28;20041;-70
2023/08/08 18:09:35;;;;;;;49.67;16.13;;;;;;;30.79;66.08;99459.66;10284632;28;20054;-70
2023/08/08 18:14:38;;;;;;;35.83;15.13;;;;;;;30.50;66.75;99426.59;10291939;28;20039;-70
2023/08/08 18:19:39;;;;;;;38.92;15.50;;;;;;;30.57;66.24;99457.84;10291820;28;20380;-70
2023/08/08 18:24:41;;;;;;;38.45;14.00;;;;;;;30.42;66.48;99455.59;10291601;28;20133;-71
2023/08/08 18:29:42;;;;;;;29.85;13.55;;;;;;;30.40;66.62;99468.84;10287587;28;20050;-70
2023/08/08 18:34:44;;;;;;;27.88;12.70;;;;;;;30.32;66.61;99455.94;10291518;28;20049;-70
2023/08/08 18:39:46;;;;;;;28.65;10.95;;;;;;;30.22;66.76;99457.84;10291837;28;20410;-70
2023/08/08 18:44:47;;;;;;;35.00;11.75;;;;;;;30.15;66.70;99448.44;10287724;28;20057;-70
2023/08/08 18:49:48;;;;;;;27.75;9.93;;;;;;;29.68;66.21;99386.06;10288953;28;20049;-70
2023/08/08 18:54:49;;;;;;;25.70;9.13;;;;;;;29.95;66.62;99444.41;10287078;28;20113;-70
2023/08/08 18:59:50;;;;;;;28.60;9.52;;;;;;;30.09;66.43;99466.16;10292737;28;20092;-70
2023/08/08 19:04:51;;;;;;;20.50;8.65;;;;;;;30.03;67.96;99465.50;10291032;28;20132;-70
2023/08/08 19:09:51;;;;;;;16.02;8.25;;;;;;;29.04;68.35;99329.00;10290473;28;20034;-70
2023/08/08 19:14:52;;;;;;;37.67;9.40;;;;;;;29.23;68.42;99369.00;10290398;28;20038;-70
2023/08/08 19:19:53;;;;;;;47.80;10.40;;;;;;;29.24;69.58;99395.19;10293871;28;20046;-70
2023/08/08 19:24:54;;;;;;;34.10;9.45;;;;;;;29.54;68.88;99449.06;10290132;28;20030;-70
2023/08/08 19:29:55;;;;;;;27.17;8.07;;;;;;;29.44;68.33;99432.94;10283760;28;20092;-70
2023/08/08 19:34:56;;;;;;;20.85;7.55;;;;;;;29.24;66.59;99411.63;10335933;28;20046;-70
2023/08/08 19:39:56;;;;;;;21.80;7.32;;;;;;;29.61;65.24;99477.91;10339451;28;20042;-69
2023/08/08 19:44:59;;;;;;;28.50;6.43;;;;;;;29.54;60.03;99454.53;10304565;28;20043;-70
2023/08/08 19:49:59;;;;;;;18.80;5.05;;;;;;;29.93;58.01;99474.84;10308486;28;20057;-70
2023/08/08 19:55:02;;;;;;;18.55;4.30;;;;;;;29.52;55.93;99393.84;10317493;28;20055;-69
2023/08/08 20:00:04;;;;;;;20.50;4.05;;;;;;;29.97;55.43;99473.06;10315484;28;20069;-70
2023/08/08 20:05:07;;;;;;;16.50;3.95;;;;;;;30.11;53.27;99469.41;10300049;28;20085;-70
2023/08/08 20:10:08;;;;;;;28.55;4.18;;;;;;;30.08;52.50;99473.59;10327374;28;20137;-69
2023/08/08 20:15:09;;;;;;;18.25;4.30;;;;;;;29.45;53.94;99398.97;10338839;28;20045;-69
2023/08/08 20:20:10;;;;;;;19.27;4.07;;;;;;;29.20;55.27;99391.50;10336876;28;20084;-69
2023/08/08 20:25:12;;;;;;;20.45;3.97;;;;;;;29.59;56.03;99475.50;10330493;28;20095;-69
2023/08/08 20:30:13;;;;;;;22.45;4.78;;;;;;;29.36;57.22;99485.69;10297632;28;20054;-69
2023/08/08 20:35:13;;;;;;;23.63;4.40;;;;;;;28.94;57.28;99441.34;10297668;28;20039;-69
2023/08/08 20:40:14;;;;;;;26.77;4.70;;;;;;;28.12;57.22;99335.94;10296751;28;20047;-69
2023/08/08 20:45:15;;;;;;;19.60;4.53;;;;;;;28.97;57.41;99469.97;10296870;28;20053;-69
2023/08/08 20:50:16;;;;;;;36.33;5.72;;;;;;;28.94;59.11;99487.00;10296736;28;20094;-70
2023/08/08 20:55:17;;;;;;;21.58;4.93;;;;;;;28.32;58.89;99403.72;10295270;28;20066;-71
2023/08/08 21:00:19;;;;;;;17.05;4.18;;;;;;;28.55;59.58;99461.97;10296395;28;20097;-70
2023/08/08 21:05:19;;;;;;;16.98;4.10;;;;;;;28.46;61.68;99474.75;10295661;28;20054;-70
2023/08/08 21:10:20;;;;;;;16.17;4.32;;;;;;;27.50;62.92;99352.81;10295442;28;20418;-70
2023/08/08 21:15:21;;;;;;;15.52;4.03;;;;;;;28.14;63.16;99471.03;10295796;28;20448;-70
2023/08/08 21:20:22;;;;;;;14.23;3.72;;;;;;;27.95;63.37;99448.53;10295270;28;20045;-70
2023/08/08 21:25:23;;;;;;;14.75;4.30;;;;;;;27.99;62.62;99468.63;10295475;28;20050;-69
2023/08/08 21:30:24;;;;;;;12.77;4.20;;;;;;;27.82;63.13;99457.50;10295107;28;20054;-71
2023/08/08 21:35:25;;;;;;;13.32;4.03;;;;;;;27.73;62.80;99458.22;10305722;28;20137;-70
2023/08/08 21:40:25;;;;;;;28.58;4.82;;;;;;;27.18;63.34;99384.53;10295862;28;20162;-70
2023/08/08 21:45:26;;;;;;;24.35;5.22;;;;;;;27.32;65.41;99447.28;10294113;28;20133;-69
2023/08/08 21:50:27;;;;;;;21.50;5.50;;;;;;;27.38;66.12;99465.16;10293921;28;20135;-70
2023/08/08 21:55:28;;;;;;;35.85;5.60;;;;;;;27.07;66.25;99413.03;10293697;28;20090;-70
2023/08/08 22:00:28;;;;;;;27.42;5.90;;;;;;;27.26;66.71;99452.00;10295054;28;20458;-70
2023/08/08 22:05:29;;;;;;;25.98;5.20;;;;;;;27.45;66.67;99490.09;10293329;28;20043;-69
2023/08/08 22:10:33;;;;;;;16.42;4.95;;;;;;;27.49;66.77;99499.31;10293184;28;20130;-69
2023/08/08 22:15:34;;;;;;;16.15;4.57;;;;;;;27.53;66.36;99494.06;10294098;28;20041;-69
2023/08/08 22:20:35;;;;;;;25.05;7.57;;;;;;;27.12;65.25;99436.69;10293532;28;20495;-70
2023/08/08 22:25:36;;;;;;;25.52;7.80;;;;;;;27.47;65.38;99485.16;10293286;28;20042;-69
2023/08/08 22:30:37;;;;;;;23.73;7.60;;;;;;;27.54;65.53;99490.22;10293470;28;20039;-70
2023/08/08 22:35:38;;;;;;;76.07;9.77;;;;;;;27.49;65.67;99476.66;10292743;28;20085;-69
2023/08/08 22:40:39;;;;;;;36.67;7.80;;;;;;;27.56;64.21;99468.09;10293322;28;20438;-69
2023/08/08 22:45:39;;;;;;;18.98;5.97;;;;;;;27.78;62.78;99492.78;10292807;28;20042;-70
2023/08/08 22:50:42;;;;;;;25.63;6.30;;;;;;;27.01;63.47;99357.00;10292273;28;20039;-69
2023/08/08 22:55:43;;;;;;;23.17;5.22;;;;;;;27.89;63.43;99486.03;10292452;28;20399;-70
2023/08/08 23:00:43;;;;;;;35.50;5.88;;;;;;;28.01;62.47;99479.25;10292163;28;20057;-69
2023/08/08 23:05:44;;;;;;;20.65;4.20;;;;;;;27.88;61.12;99489.88;10290992;28;20130;-70